Snoqualmie River: Sum of the 3 forks

back to: Snoqualmie river
Sum of the 3 forks Summary - Station Details: GARW1, SNQW1, TANW1, (NOAA Hydrograph: GARW1, SNQW1, TANW1)
Latest reading:
Sat09/21 02:15 am 614 cfs (+12/hr)
Past 24hr max:
Fri09/20 02:15 am 709 cfs
Forecasted crests: (published Fri 09/20/19 02:05 pm)
Mon09/23 05:00 am 833 cfs
Tue09/24 05:00 pm 439 cfs
Thu09/26 05:00 am 899 cfs
Fri09/27 11:00 pm 1124 cfs

Sum of the 3 forks Details

Latest Readings

Last 100 Readings:
Sat09/21 02:15 am 614 cfs
Sat09/21 02:00 am 611 cfs
Sat09/21 01:45 am 611 cfs
Sat09/21 01:30 am 609 cfs
Sat09/21 01:15 am 619 cfs
Sat09/21 01:00 am 616 cfs
Sat09/21 12:45 am 616 cfs
Sat09/21 12:30 am 617 cfs
Sat09/21 12:15 am 613 cfs
Sat09/21 12:00 am 619 cfs
Fri09/20 11:45 pm 623 cfs
Fri09/20 11:30 pm 619 cfs
Fri09/20 11:15 pm 623 cfs
Fri09/20 11:00 pm 621 cfs
Fri09/20 10:45 pm 622 cfs
Fri09/20 10:30 pm 629 cfs
Fri09/20 10:15 pm 625 cfs
Fri09/20 10:00 pm 625 cfs
Fri09/20 09:45 pm 625 cfs
Fri09/20 09:30 pm 632 cfs
Fri09/20 09:15 pm 632 cfs
Fri09/20 09:00 pm 635 cfs
Fri09/20 08:45 pm 629 cfs
Fri09/20 08:30 pm 632 cfs
Fri09/20 08:15 pm 632 cfs
Fri09/20 08:00 pm 637 cfs
Fri09/20 07:45 pm 637 cfs
Fri09/20 07:30 pm 642 cfs
Fri09/20 07:15 pm 642 cfs
Fri09/20 07:00 pm 636 cfs
Fri09/20 06:45 pm 642 cfs
Fri09/20 06:30 pm 636 cfs
Fri09/20 06:15 pm 642 cfs
Fri09/20 06:00 pm 645 cfs
Fri09/20 05:45 pm 647 cfs
Fri09/20 05:30 pm 644 cfs
Fri09/20 05:15 pm 644 cfs
Fri09/20 05:00 pm 647 cfs
Fri09/20 04:45 pm 644 cfs
Fri09/20 04:30 pm 648 cfs
Fri09/20 04:15 pm 644 cfs
Fri09/20 04:00 pm 650 cfs
Fri09/20 03:45 pm 652 cfs
Fri09/20 03:30 pm 652 cfs
Fri09/20 03:15 pm 652 cfs
Fri09/20 03:00 pm 651 cfs
Fri09/20 02:45 pm 658 cfs
Fri09/20 02:30 pm 651 cfs
Fri09/20 02:15 pm 651 cfs
Fri09/20 02:00 pm 658 cfs
Fri09/20 01:45 pm 657 cfs
Fri09/20 01:30 pm 658 cfs
Fri09/20 01:15 pm 668 cfs
Fri09/20 01:00 pm 661 cfs
Fri09/20 12:45 pm 658 cfs
Fri09/20 12:30 pm 660 cfs
Fri09/20 12:15 pm 661 cfs
Fri09/20 12:00 pm 661 cfs
Fri09/20 11:45 am 667 cfs
Fri09/20 11:30 am 667 cfs
Fri09/20 11:15 am 666 cfs
Fri09/20 11:00 am 661 cfs
Fri09/20 10:45 am 663 cfs
Fri09/20 10:30 am 667 cfs
Fri09/20 10:15 am 670 cfs
Fri09/20 10:00 am 675 cfs
Fri09/20 09:45 am 678 cfs
Fri09/20 09:30 am 672 cfs
Fri09/20 09:15 am 675 cfs
Fri09/20 09:00 am 678 cfs
Fri09/20 08:45 am 672 cfs
Fri09/20 08:30 am 678 cfs
Fri09/20 08:15 am 680 cfs
Fri09/20 08:00 am 675 cfs
Fri09/20 07:45 am 680 cfs
Fri09/20 07:30 am 677 cfs
Fri09/20 07:15 am 689 cfs
Fri09/20 07:00 am 680 cfs
Fri09/20 06:45 am 686 cfs
Fri09/20 06:30 am 687 cfs
Fri09/20 06:15 am 686 cfs
Fri09/20 06:00 am 686 cfs
Fri09/20 05:45 am 696 cfs
Fri09/20 05:30 am 689 cfs
Fri09/20 05:15 am 692 cfs
Fri09/20 05:00 am 699 cfs
Fri09/20 04:45 am 693 cfs
Fri09/20 04:30 am 690 cfs
Fri09/20 04:15 am 706 cfs
Fri09/20 04:00 am 706 cfs
Fri09/20 03:45 am 707 cfs
Fri09/20 03:30 am 702 cfs
Fri09/20 03:15 am 709 cfs
Fri09/20 03:00 am 706 cfs
Fri09/20 02:45 am 706 cfs
Fri09/20 02:30 am 709 cfs
Fri09/20 02:15 am 709 cfs
Fri09/20 02:00 am 714 cfs
Fri09/20 01:45 am 718 cfs
Fri09/20 01:30 am 721 cfs

Latest Forecasts

Currently Forecasted Readings:
Fri09/20 05:00 pm 634 cfs
Fri09/20 11:00 pm 591 cfs
Sat09/21 05:00 am 551 cfs
Sat09/21 11:00 am 515 cfs
Sat09/21 05:00 pm 482 cfs
Sat09/21 11:00 pm 448 cfs
Sun09/22 05:00 am 424 cfs
Sun09/22 11:00 am 437 cfs
Sun09/22 05:00 pm 517 cfs
Sun09/22 11:00 pm 735 cfs
Mon09/23 05:00 am 833 cfs
Mon09/23 11:00 am 621 cfs
Mon09/23 05:00 pm 465 cfs
Mon09/23 11:00 pm 399 cfs
Tue09/24 05:00 am 389 cfs
Tue09/24 11:00 am 422 cfs
Tue09/24 05:00 pm 439 cfs
Tue09/24 11:00 pm 410 cfs
Wed09/25 05:00 am 368 cfs
Wed09/25 11:00 am 353 cfs
Wed09/25 05:00 pm 387 cfs
Wed09/25 11:00 pm 688 cfs
Thu09/26 05:00 am 899 cfs
Thu09/26 11:00 am 769 cfs
Thu09/26 05:00 pm 627 cfs
Thu09/26 11:00 pm 721 cfs
Fri09/27 05:00 am 917 cfs
Fri09/27 11:00 am 964 cfs
Fri09/27 05:00 pm 1023 cfs
Fri09/27 11:00 pm 1124 cfs
Sat09/28 05:00 am 985 cfs
Sat09/28 11:00 am 774 cfs
Sat09/28 05:00 pm 678 cfs
Sat09/28 11:00 pm 623 cfs
Sun09/29 05:00 am 576 cfs
Sun09/29 11:00 am 539 cfs
Sun09/29 05:00 pm 514 cfs
Sun09/29 11:00 pm 486 cfs
Mon09/30 05:00 am 490 cfs

Snoqualmie River flood gauge data supplied by the
National Weather Service Northwest River Forecast Center.

Sign up for Floodzilla alerts.